createdAt,value
2022-09-25T00:02:16.567Z,34.88
2022-09-25T00:07:20.524Z,39.13
2022-09-25T00:12:24.352Z,38.83
2022-09-25T00:17:29.634Z,41.35
2022-09-25T00:22:33.548Z,40.90
2022-09-25T00:27:37.529Z,38.60
2022-09-25T00:32:42.718Z,37.30
2022-09-25T00:37:46.594Z,37.22
2022-09-25T00:42:50.445Z,33.35
2022-09-25T00:47:59.848Z,34.53
2022-09-25T00:53:07.667Z,33.00
2022-09-25T00:58:12.704Z,34.60
2022-09-25T01:03:18.624Z,33.65
2022-09-25T01:08:25.027Z,32.33
2022-09-25T01:13:29.947Z,31.35
2022-09-25T01:18:50.838Z,29.25
2022-09-25T01:24:40.958Z,28.58
2022-09-25T01:29:50.674Z,26.15
2022-09-25T01:35:02.100Z,26.40
2022-09-25T01:40:09.346Z,22.40
2022-09-25T01:45:18.961Z,18.27
2022-09-25T01:50:27.732Z,16.02
2022-09-25T01:55:36.667Z,15.25
2022-09-25T02:00:44.655Z,15.45
2022-09-25T02:05:50.965Z,15.18
2022-09-25T02:16:05.543Z,13.95
2022-09-25T02:21:15.511Z,14.73
2022-09-25T02:26:25.977Z,14.95
2022-09-25T02:31:35.857Z,14.32
2022-09-25T02:36:39.683Z,13.63
2022-09-25T02:41:52.730Z,13.55
2022-09-25T02:47:05.046Z,13.25
2022-09-25T02:52:12.842Z,13.43
2022-09-25T02:57:22.679Z,13.02
2022-09-25T03:02:28.890Z,12.60
2022-09-25T03:12:56.478Z,13.05
2022-09-25T03:18:01.576Z,13.40
2022-09-25T03:23:05.388Z,12.70
2022-09-25T03:28:13.290Z,12.20
2022-09-25T03:33:18.456Z,12.45
2022-09-25T03:38:22.195Z,13.13
2022-09-25T03:43:26.129Z,11.65
2022-09-25T03:48:31.251Z,12.10
2022-09-25T03:53:35.059Z,11.82
2022-09-25T03:58:38.855Z,12.50
2022-09-25T04:03:47.273Z,11.02
2022-09-25T04:08:51.448Z,11.27
2022-09-25T04:13:55.507Z,10.95
2022-09-25T04:19:00.594Z,11.27
2022-09-25T04:24:22.077Z,11.32
2022-09-25T04:29:25.808Z,11.60
2022-09-25T04:34:31.075Z,11.05
2022-09-25T04:39:34.896Z,10.50
2022-09-25T04:44:38.717Z,11.40
2022-09-25T04:49:44.075Z,11.93
2022-09-25T04:54:48.090Z,10.52
2022-09-25T04:59:52.170Z,13.65
2022-09-25T05:04:57.432Z,11.82
2022-09-25T05:10:01.644Z,10.77
2022-09-25T05:15:06.278Z,10.25
2022-09-25T05:20:11.921Z,10.68
2022-09-25T05:25:15.880Z,8.60
2022-09-25T05:30:19.782Z,10.80
2022-09-25T05:35:25.258Z,10.10
2022-09-25T05:40:29.231Z,10.60
2022-09-25T05:45:33.376Z,9.65
2022-09-25T05:50:38.736Z,10.30
2022-09-25T05:55:42.699Z,7.33
2022-09-25T06:00:46.694Z,9.77
2022-09-25T06:05:52.087Z,9.52
2022-09-25T06:10:56.205Z,10.67
2022-09-25T06:16:00.585Z,10.20
2022-09-25T06:21:07.083Z,10.88
2022-09-25T06:26:10.852Z,10.27
2022-09-25T06:31:14.854Z,9.88
2022-09-25T06:36:20.166Z,10.23
2022-09-25T06:41:24.460Z,10.50
2022-09-25T06:46:28.334Z,12.30
2022-09-25T06:51:36.164Z,12.48
2022-09-25T06:56:40.212Z,10.38
2022-09-25T07:01:44.073Z,10.75
2022-09-25T07:06:49.309Z,11.15
2022-09-25T07:11:53.260Z,10.30
2022-09-25T07:16:57.112Z,10.93
2022-09-25T07:22:04.142Z,10.90
2022-09-25T07:27:07.909Z,11.38
2022-09-25T07:32:11.696Z,10.57
2022-09-25T07:37:16.899Z,10.65
2022-09-25T07:42:20.773Z,8.40
2022-09-25T07:47:24.595Z,10.45
2022-09-25T07:52:29.891Z,10.50
2022-09-25T07:57:34.222Z,10.60
2022-09-25T08:02:37.959Z,9.82
2022-09-25T08:07:43.230Z,10.57
2022-09-25T08:12:47.470Z,25.23
2022-09-25T08:17:51.535Z,29.25
2022-09-25T08:22:57.435Z,9.00
2022-09-25T08:33:05.110Z,6.07
2022-09-25T08:38:11.279Z,6.50
2022-09-25T08:43:21.176Z,5.97
2022-09-25T08:48:45.969Z,5.35
2022-09-25T08:53:51.043Z,5.45
2022-09-25T08:58:57.449Z,5.43
2022-09-25T09:04:07.221Z,5.38
2022-09-25T09:09:16.243Z,6.05
2022-09-25T09:14:21.743Z,5.40
2022-09-25T09:19:25.786Z,5.13
2022-09-25T09:24:38.610Z,4.40
2022-09-25T09:29:53.600Z,4.30
2022-09-25T09:35:07.134Z,3.43
2022-09-25T09:40:26.978Z,4.25
2022-09-25T09:45:38.685Z,3.75
2022-09-25T09:50:49.865Z,4.30
2022-09-25T09:55:59.543Z,4.43
2022-09-25T10:01:22.118Z,4.38
2022-09-25T10:06:31.325Z,4.67
2022-09-25T10:11:37.770Z,4.10
2022-09-25T10:16:41.784Z,5.57
2022-09-25T10:21:47.968Z,4.63
2022-09-25T10:26:53.119Z,3.97
2022-09-25T10:31:59.920Z,4.65
2022-09-25T10:37:21.241Z,4.25
2022-09-25T10:42:39.819Z,3.80
2022-09-25T10:48:02.135Z,2.83
2022-09-25T10:53:07.700Z,3.50
2022-09-25T10:58:16.332Z,3.60
2022-09-25T11:03:23.951Z,3.75
2022-09-25T11:08:30.217Z,3.30
2022-09-25T11:13:47.535Z,3.15
2022-09-25T11:18:52.995Z,2.80
2022-09-25T11:24:09.396Z,3.17
2022-09-25T11:29:17.404Z,4.22
2022-09-25T11:34:28.888Z,3.35
2022-09-25T11:39:56.303Z,3.38
2022-09-25T11:45:08.391Z,4.10
2022-09-25T11:50:16.232Z,3.42
2022-09-25T11:55:43.437Z,6.53
2022-09-25T12:00:56.099Z,3.00
2022-09-25T12:06:24.724Z,3.40
2022-09-25T12:11:38.176Z,2.97
2022-09-25T12:16:49.635Z,3.60
2022-09-25T12:22:01.516Z,3.30
2022-09-25T12:27:11.435Z,3.33
2022-09-25T12:32:25.136Z,3.60
2022-09-25T12:37:38.739Z,2.70
2022-09-25T12:42:45.579Z,3.53
2022-09-25T12:47:59.623Z,2.95
2022-09-25T12:53:06.800Z,3.13
2022-09-25T12:58:18.416Z,4.10
2022-09-25T13:03:29.129Z,3.00
2022-09-25T13:08:41.803Z,3.13
2022-09-25T13:13:47.859Z,3.13
2022-09-25T13:19:12.589Z,2.80
2022-09-25T13:24:17.758Z,3.15
2022-09-25T13:29:28.093Z,2.90
2022-09-25T13:34:35.827Z,2.60
2022-09-25T13:39:59.122Z,2.50
2022-09-25T13:45:09.461Z,2.90
2022-09-25T13:50:27.983Z,2.70
2022-09-25T13:55:32.208Z,3.05
2022-09-25T14:00:55.596Z,3.55
2022-09-25T14:06:01.367Z,3.57
2022-09-25T14:11:06.735Z,2.55
2022-09-25T14:16:15.198Z,3.00
2022-09-25T14:21:21.739Z,2.65
2022-09-25T14:26:26.631Z,3.60
2022-09-25T14:31:40.903Z,4.65
2022-09-25T14:36:54.773Z,3.55
2022-09-25T14:42:33.387Z,3.10
2022-09-25T14:47:38.885Z,3.00
2022-09-25T14:52:44.067Z,3.47
2022-09-25T14:57:49.680Z,4.22
2022-09-25T15:02:55.599Z,3.75
2022-09-25T15:08:02.363Z,3.40
2022-09-25T15:13:09.466Z,3.25
2022-09-25T15:18:15.864Z,3.92
2022-09-25T15:23:22.720Z,4.10
2022-09-25T15:28:27.638Z,4.63
2022-09-25T15:33:34.098Z,5.83
2022-09-25T15:38:40.102Z,3.80
2022-09-25T15:43:43.998Z,4.95
2022-09-25T15:48:53.738Z,4.55
2022-09-25T15:54:00.512Z,5.57
2022-09-25T15:59:05.995Z,7.40
2022-09-25T16:04:28.696Z,7.85
2022-09-25T16:09:35.096Z,6.70
2022-09-25T16:14:38.993Z,7.30
2022-09-25T16:19:42.770Z,7.85
2022-09-25T16:24:50.958Z,9.10
2022-09-25T16:29:59.983Z,9.68
2022-09-25T16:35:07.351Z,12.70
2022-09-25T16:40:22.970Z,13.85
2022-09-25T16:45:29.826Z,12.85
2022-09-25T16:50:35.085Z,13.65
2022-09-25T16:55:48.256Z,15.83
2022-09-25T17:00:52.450Z,11.85
2022-09-25T17:05:58.147Z,13.70
2022-09-25T17:11:06.094Z,16.52
2022-09-25T17:16:10.371Z,17.38
2022-09-25T17:21:15.905Z,21.05
2022-09-25T17:26:22.845Z,18.02
2022-09-25T17:31:26.907Z,17.73
2022-09-25T17:36:30.776Z,17.00
2022-09-25T17:41:37.476Z,16.92
2022-09-25T17:46:41.439Z,15.85
2022-09-25T17:51:45.816Z,14.73
2022-09-25T17:56:51.384Z,13.88
2022-09-25T18:01:55.179Z,15.43
2022-09-25T18:07:00.066Z,16.63
2022-09-25T18:12:05.330Z,24.80
2022-09-25T18:17:09.078Z,23.47
2022-09-25T18:22:19.424Z,24.23
2022-09-25T18:27:25.519Z,20.45
2022-09-25T18:32:31.453Z,19.42
2022-09-25T18:42:40.352Z,21.75
2022-09-25T18:47:45.754Z,20.45
2022-09-25T18:52:50.067Z,29.03
2022-09-25T18:57:55.198Z,29.67
2022-09-25T19:02:59.698Z,30.00
2022-09-25T19:08:05.008Z,23.67
2022-09-25T19:13:10.340Z,23.45
2022-09-25T19:18:14.415Z,21.80
2022-09-25T19:23:19.271Z,22.83
2022-09-25T19:28:24.861Z,20.05
2022-09-25T19:33:30.732Z,26.33
2022-09-25T19:38:34.973Z,17.02
2022-09-25T19:43:40.228Z,14.18
2022-09-25T19:48:44.613Z,15.83
2022-09-25T19:53:48.797Z,15.25
2022-09-25T19:58:53.974Z,19.30
2022-09-25T20:03:58.021Z,19.53
2022-09-25T20:09:02.185Z,17.08
2022-09-25T20:14:08.001Z,14.02
2022-09-25T20:19:12.427Z,19.15
2022-09-25T20:24:16.483Z,18.27
2022-09-25T20:29:21.614Z,18.08
2022-09-25T20:34:25.430Z,16.38
2022-09-25T20:39:29.825Z,23.40
2022-09-25T20:44:35.069Z,20.92
2022-09-25T20:49:39.550Z,21.40
2022-09-25T20:54:43.523Z,19.52
2022-09-25T20:59:48.586Z,18.65
2022-09-25T21:04:53.574Z,20.60
2022-09-25T21:09:57.412Z,23.20
2022-09-25T21:15:02.529Z,23.55
2022-09-25T21:20:07.085Z,24.95
2022-09-25T21:25:11.144Z,24.27
2022-09-25T21:30:16.551Z,25.38
2022-09-25T21:35:20.395Z,24.03
2022-09-25T21:40:24.633Z,23.77
2022-09-25T21:45:31.232Z,23.42
2022-09-25T21:50:35.028Z,23.25
2022-09-25T21:55:39.790Z,23.10
2022-09-25T22:00:45.064Z,26.20
2022-09-25T22:05:50.039Z,25.47
2022-09-25T22:10:56.546Z,24.90
2022-09-25T22:16:02.541Z,33.75
2022-09-25T22:26:10.009Z,33.20
2022-09-25T22:31:17.497Z,31.92
2022-09-25T22:36:21.282Z,32.00
2022-09-25T22:41:25.580Z,28.73
2022-09-25T22:46:30.842Z,27.92
2022-09-25T22:51:34.733Z,27.67
2022-09-25T22:56:38.543Z,24.40
2022-09-25T23:01:45.332Z,24.35
2022-09-25T23:06:49.723Z,22.58
2022-09-25T23:11:54.003Z,20.40
2022-09-25T23:17:00.526Z,18.70
2022-09-25T23:22:05.343Z,21.83
2022-09-25T23:27:09.149Z,21.73
2022-09-25T23:32:14.216Z,23.42
2022-09-25T23:37:18.052Z,21.65
2022-09-25T23:42:22.224Z,21.60
2022-09-25T23:47:27.512Z,21.02
2022-09-25T23:52:31.313Z,16.63
2022-09-25T23:57:37.082Z,21.33
